sensor_id;sensor_type;location;lat;lon;timestamp;P1;durP1;ratioP1;P2;durP2;ratioP2
79212;SDS011;68639;52.380;9.822;2023-07-22T00:00:34;9.07;;;5.32;;
79212;SDS011;68639;52.380;9.822;2023-07-22T00:02:59;8.93;;;5.70;;
79212;SDS011;68639;52.380;9.822;2023-07-22T00:05:24;7.85;;;5.70;;
79212;SDS011;68639;52.380;9.822;2023-07-22T00:07:50;11.18;;;6.57;;
79212;SDS011;68639;52.380;9.822;2023-07-22T00:10:16;8.18;;;5.57;;
79212;SDS011;68639;52.380;9.822;2023-07-22T00:12:41;9.80;;;6.03;;
79212;SDS011;68639;52.380;9.822;2023-07-22T00:15:06;12.15;;;7.07;;
79212;SDS011;68639;52.380;9.822;2023-07-22T00:17:32;13.10;;;7.25;;
79212;SDS011;68639;52.380;9.822;2023-07-22T00:19:57;15.23;;;7.30;;
79212;SDS011;68639;52.380;9.822;2023-07-22T00:22:22;13.30;;;8.30;;
79212;SDS011;68639;52.380;9.822;2023-07-22T00:24:47;13.00;;;8.13;;
79212;SDS011;68639;52.380;9.822;2023-07-22T00:27:13;13.82;;;8.68;;
79212;SDS011;68639;52.380;9.822;2023-07-22T00:29:39;11.80;;;8.05;;
79212;SDS011;68639;52.380;9.822;2023-07-22T00:32:04;11.18;;;7.45;;
79212;SDS011;68639;52.380;9.822;2023-07-22T00:34:32;11.23;;;7.55;;
79212;SDS011;68639;52.380;9.822;2023-07-22T00:36:57;13.43;;;7.72;;
79212;SDS011;68639;52.380;9.822;2023-07-22T00:39:23;14.50;;;7.53;;
79212;SDS011;68639;52.380;9.822;2023-07-22T00:41:48;12.27;;;7.40;;
79212;SDS011;68639;52.380;9.822;2023-07-22T00:44:13;11.05;;;7.65;;
79212;SDS011;68639;52.380;9.822;2023-07-22T00:46:38;14.45;;;7.68;;
79212;SDS011;68639;52.380;9.822;2023-07-22T00:49:07;11.00;;;7.78;;
79212;SDS011;68639;52.380;9.822;2023-07-22T00:51:32;11.68;;;7.55;;
79212;SDS011;68639;52.380;9.822;2023-07-22T00:53:57;13.82;;;6.80;;
79212;SDS011;68639;52.380;9.822;2023-07-22T00:56:22;11.38;;;6.53;;
79212;SDS011;68639;52.380;9.822;2023-07-22T00:58:48;11.18;;;6.72;;
79212;SDS011;68639;52.380;9.822;2023-07-22T01:01:13;13.05;;;6.82;;
79212;SDS011;68639;52.380;9.822;2023-07-22T01:03:38;11.57;;;7.22;;
79212;SDS011;68639;52.380;9.822;2023-07-22T01:06:03;13.65;;;7.18;;
79212;SDS011;68639;52.380;9.822;2023-07-22T01:08:29;12.38;;;6.68;;
79212;SDS011;68639;52.380;9.822;2023-07-22T01:10:54;14.68;;;7.85;;
79212;SDS011;68639;52.380;9.822;2023-07-22T01:13:19;9.25;;;6.85;;
79212;SDS011;68639;52.380;9.822;2023-07-22T01:15:45;11.80;;;7.28;;
79212;SDS011;68639;52.380;9.822;2023-07-22T01:18:10;13.30;;;6.95;;
79212;SDS011;68639;52.380;9.822;2023-07-22T01:20:36;12.65;;;7.18;;
79212;SDS011;68639;52.380;9.822;2023-07-22T01:23:01;14.68;;;6.68;;
79212;SDS011;68639;52.380;9.822;2023-07-22T01:25:26;11.80;;;7.07;;
79212;SDS011;68639;52.380;9.822;2023-07-22T01:27:52;12.25;;;7.38;;
79212;SDS011;68639;52.380;9.822;2023-07-22T01:30:17;14.13;;;7.60;;
79212;SDS011;68639;52.380;9.822;2023-07-22T01:32:44;11.82;;;7.38;;
79212;SDS011;68639;52.380;9.822;2023-07-22T01:35:09;11.90;;;7.25;;
79212;SDS011;68639;52.380;9.822;2023-07-22T01:37:34;15.02;;;7.32;;
79212;SDS011;68639;52.380;9.822;2023-07-22T01:40:00;12.68;;;7.18;;
79212;SDS011;68639;52.380;9.822;2023-07-22T01:42:25;11.65;;;7.47;;
79212;SDS011;68639;52.380;9.822;2023-07-22T01:44:50;14.43;;;7.40;;
79212;SDS011;68639;52.380;9.822;2023-07-22T01:47:15;10.65;;;6.88;;
79212;SDS011;68639;52.380;9.822;2023-07-22T01:49:41;11.70;;;6.70;;
79212;SDS011;68639;52.380;9.822;2023-07-22T01:52:06;11.63;;;6.68;;
79212;SDS011;68639;52.380;9.822;2023-07-22T01:54:31;13.13;;;7.13;;
79212;SDS011;68639;52.380;9.822;2023-07-22T01:56:57;11.45;;;6.97;;
79212;SDS011;68639;52.380;9.822;2023-07-22T01:59:22;12.02;;;6.65;;
79212;SDS011;68639;52.380;9.822;2023-07-22T02:01:47;11.20;;;6.60;;
79212;SDS011;68639;52.380;9.822;2023-07-22T02:04:12;13.50;;;6.43;;
79212;SDS011;68639;52.380;9.822;2023-07-22T02:06:38;13.60;;;6.95;;
79212;SDS011;68639;52.380;9.822;2023-07-22T02:09:03;11.18;;;6.82;;
79212;SDS011;68639;52.380;9.822;2023-07-22T02:11:36;16.35;;;6.25;;
79212;SDS011;68639;52.380;9.822;2023-07-22T02:14:01;11.88;;;6.72;;
79212;SDS011;68639;52.380;9.822;2023-07-22T02:16:26;13.18;;;6.72;;
79212;SDS011;68639;52.380;9.822;2023-07-22T02:18:51;16.38;;;6.95;;
79212;SDS011;68639;52.380;9.822;2023-07-22T02:21:17;14.63;;;6.20;;
79212;SDS011;68639;52.380;9.822;2023-07-22T02:23:42;16.48;;;6.38;;
79212;SDS011;68639;52.380;9.822;2023-07-22T02:26:07;13.32;;;6.60;;
79212;SDS011;68639;52.380;9.822;2023-07-22T02:28:33;13.23;;;6.75;;
79212;SDS011;68639;52.380;9.822;2023-07-22T02:31:00;14.15;;;6.13;;
79212;SDS011;68639;52.380;9.822;2023-07-22T02:33:27;17.02;;;6.35;;
79212;SDS011;68639;52.380;9.822;2023-07-22T02:35:52;11.00;;;5.93;;
79212;SDS011;68639;52.380;9.822;2023-07-22T02:38:17;13.65;;;6.93;;
79212;SDS011;68639;52.380;9.822;2023-07-22T02:40:42;12.35;;;6.13;;
79212;SDS011;68639;52.380;9.822;2023-07-22T02:43:08;18.70;;;6.70;;
79212;SDS011;68639;52.380;9.822;2023-07-22T02:45:33;14.75;;;6.80;;
79212;SDS011;68639;52.380;9.822;2023-07-22T02:47:59;12.38;;;6.18;;
79212;SDS011;68639;52.380;9.822;2023-07-22T02:50:24;17.40;;;6.78;;
79212;SDS011;68639;52.380;9.822;2023-07-22T02:52:50;11.90;;;6.30;;
79212;SDS011;68639;52.380;9.822;2023-07-22T02:55:16;15.55;;;6.90;;
79212;SDS011;68639;52.380;9.822;2023-07-22T02:57:43;12.00;;;6.07;;
79212;SDS011;68639;52.380;9.822;2023-07-22T03:00:09;12.75;;;6.45;;
79212;SDS011;68639;52.380;9.822;2023-07-22T03:02:36;13.05;;;6.63;;
79212;SDS011;68639;52.380;9.822;2023-07-22T03:05:03;12.88;;;7.10;;
79212;SDS011;68639;52.380;9.822;2023-07-22T03:07:31;18.25;;;7.40;;
79212;SDS011;68639;52.380;9.822;2023-07-22T03:09:56;12.40;;;6.22;;
79212;SDS011;68639;52.380;9.822;2023-07-22T03:12:22;13.13;;;6.55;;
79212;SDS011;68639;52.380;9.822;2023-07-22T03:14:47;16.63;;;6.93;;
79212;SDS011;68639;52.380;9.822;2023-07-22T03:17:13;16.40;;;6.50;;
79212;SDS011;68639;52.380;9.822;2023-07-22T03:19:41;15.25;;;6.75;;
79212;SDS011;68639;52.380;9.822;2023-07-22T03:22:06;13.60;;;6.32;;
79212;SDS011;68639;52.380;9.822;2023-07-22T03:24:31;14.35;;;7.10;;
79212;SDS011;68639;52.380;9.822;2023-07-22T03:26:57;17.20;;;6.90;;
79212;SDS011;68639;52.380;9.822;2023-07-22T03:29:22;19.25;;;7.28;;
79212;SDS011;68639;52.380;9.822;2023-07-22T03:31:49;14.27;;;6.95;;
79212;SDS011;68639;52.380;9.822;2023-07-22T03:34:14;17.38;;;7.50;;
79212;SDS011;68639;52.380;9.822;2023-07-22T03:36:39;13.85;;;7.22;;
79212;SDS011;68639;52.380;9.822;2023-07-22T03:39:05;17.63;;;7.22;;
79212;SDS011;68639;52.380;9.822;2023-07-22T03:41:31;14.18;;;7.40;;
79212;SDS011;68639;52.380;9.822;2023-07-22T03:43:56;16.52;;;7.70;;
79212;SDS011;68639;52.380;9.822;2023-07-22T03:46:21;20.00;;;7.55;;
79212;SDS011;68639;52.380;9.822;2023-07-22T03:48:46;14.43;;;7.65;;
79212;SDS011;68639;52.380;9.822;2023-07-22T03:51:12;14.93;;;8.07;;
79212;SDS011;68639;52.380;9.822;2023-07-22T03:53:37;13.32;;;7.68;;
79212;SDS011;68639;52.380;9.822;2023-07-22T03:56:02;15.05;;;7.50;;
79212;SDS011;68639;52.380;9.822;2023-07-22T03:58:27;16.35;;;8.15;;
79212;SDS011;68639;52.380;9.822;2023-07-22T04:00:53;16.30;;;8.18;;
79212;SDS011;68639;52.380;9.822;2023-07-22T04:03:18;18.25;;;8.20;;
79212;SDS011;68639;52.380;9.822;2023-07-22T04:05:43;14.63;;;7.78;;
79212;SDS011;68639;52.380;9.822;2023-07-22T04:08:08;14.65;;;7.90;;
79212;SDS011;68639;52.380;9.822;2023-07-22T04:10:33;23.67;;;8.48;;
79212;SDS011;68639;52.380;9.822;2023-07-22T04:12:59;15.05;;;7.93;;
79212;SDS011;68639;52.380;9.822;2023-07-22T04:15:24;13.75;;;8.13;;
79212;SDS011;68639;52.380;9.822;2023-07-22T04:17:50;17.88;;;8.63;;
79212;SDS011;68639;52.380;9.822;2023-07-22T04:20:15;15.80;;;8.27;;
79212;SDS011;68639;52.380;9.822;2023-07-22T04:22:40;14.30;;;8.02;;
79212;SDS011;68639;52.380;9.822;2023-07-22T04:25:06;14.40;;;7.72;;
79212;SDS011;68639;52.380;9.822;2023-07-22T04:27:31;18.80;;;8.23;;
79212;SDS011;68639;52.380;9.822;2023-07-22T04:29:56;17.67;;;7.90;;
79212;SDS011;68639;52.380;9.822;2023-07-22T04:32:21;18.70;;;8.50;;
79212;SDS011;68639;52.380;9.822;2023-07-22T04:34:47;12.95;;;7.43;;
79212;SDS011;68639;52.380;9.822;2023-07-22T04:37:12;16.90;;;7.85;;
79212;SDS011;68639;52.380;9.822;2023-07-22T04:39:38;17.85;;;8.25;;
79212;SDS011;68639;52.380;9.822;2023-07-22T04:42:03;17.13;;;7.78;;
79212;SDS011;68639;52.380;9.822;2023-07-22T04:44:28;14.63;;;7.72;;
79212;SDS011;68639;52.380;9.822;2023-07-22T04:46:54;16.13;;;7.70;;
79212;SDS011;68639;52.380;9.822;2023-07-22T04:49:19;17.15;;;7.82;;
79212;SDS011;68639;52.380;9.822;2023-07-22T04:51:45;14.73;;;8.07;;
79212;SDS011;68639;52.380;9.822;2023-07-22T04:54:10;14.52;;;7.80;;
79212;SDS011;68639;52.380;9.822;2023-07-22T04:56:36;16.00;;;7.97;;
79212;SDS011;68639;52.380;9.822;2023-07-22T04:59:01;17.13;;;7.80;;
79212;SDS011;68639;52.380;9.822;2023-07-22T05:01:26;19.17;;;7.55;;
79212;SDS011;68639;52.380;9.822;2023-07-22T05:03:51;14.38;;;7.53;;
79212;SDS011;68639;52.380;9.822;2023-07-22T05:06:17;16.77;;;8.70;;
79212;SDS011;68639;52.380;9.822;2023-07-22T05:08:42;14.88;;;7.68;;
79212;SDS011;68639;52.380;9.822;2023-07-22T05:11:07;12.77;;;7.15;;
79212;SDS011;68639;52.380;9.822;2023-07-22T05:13:33;14.38;;;7.97;;
79212;SDS011;68639;52.380;9.822;2023-07-22T05:15:58;14.88;;;7.88;;
79212;SDS011;68639;52.380;9.822;2023-07-22T05:18:23;14.13;;;7.32;;
79212;SDS011;68639;52.380;9.822;2023-07-22T05:20:48;12.05;;;6.70;;
79212;SDS011;68639;52.380;9.822;2023-07-22T05:23:13;16.58;;;7.60;;
79212;SDS011;68639;52.380;9.822;2023-07-22T05:25:38;12.85;;;7.00;;
79212;SDS011;68639;52.380;9.822;2023-07-22T05:28:04;13.20;;;7.45;;
79212;SDS011;68639;52.380;9.822;2023-07-22T05:30:29;12.65;;;6.93;;
79212;SDS011;68639;52.380;9.822;2023-07-22T05:32:54;13.38;;;6.75;;
79212;SDS011;68639;52.380;9.822;2023-07-22T05:35:19;13.25;;;6.70;;
79212;SDS011;68639;52.380;9.822;2023-07-22T05:37:45;15.73;;;7.13;;
79212;SDS011;68639;52.380;9.822;2023-07-22T05:40:10;11.43;;;7.05;;
79212;SDS011;68639;52.380;9.822;2023-07-22T05:42:36;13.68;;;7.15;;
79212;SDS011;68639;52.380;9.822;2023-07-22T05:45:01;14.25;;;7.15;;
79212;SDS011;68639;52.380;9.822;2023-07-22T05:47:27;13.05;;;6.50;;
79212;SDS011;68639;52.380;9.822;2023-07-22T05:49:52;11.85;;;6.55;;
79212;SDS011;68639;52.380;9.822;2023-07-22T05:52:18;14.00;;;6.30;;
79212;SDS011;68639;52.380;9.822;2023-07-22T05:54:43;13.38;;;6.53;;
79212;SDS011;68639;52.380;9.822;2023-07-22T05:57:08;12.38;;;6.57;;
79212;SDS011;68639;52.380;9.822;2023-07-22T05:59:33;14.00;;;7.07;;
79212;SDS011;68639;52.380;9.822;2023-07-22T06:02:01;14.38;;;7.00;;
79212;SDS011;68639;52.380;9.822;2023-07-22T06:04:26;14.70;;;6.65;;
79212;SDS011;68639;52.380;9.822;2023-07-22T06:06:51;15.75;;;7.32;;
79212;SDS011;68639;52.380;9.822;2023-07-22T06:09:16;19.60;;;6.68;;
79212;SDS011;68639;52.380;9.822;2023-07-22T06:11:41;10.88;;;6.63;;
79212;SDS011;68639;52.380;9.822;2023-07-22T06:14:07;17.40;;;7.20;;
79212;SDS011;68639;52.380;9.822;2023-07-22T06:16:33;15.85;;;6.70;;
79212;SDS011;68639;52.380;9.822;2023-07-22T06:18:58;14.95;;;7.22;;
79212;SDS011;68639;52.380;9.822;2023-07-22T06:21:23;14.85;;;6.38;;
79212;SDS011;68639;52.380;9.822;2023-07-22T06:23:48;11.35;;;6.20;;
79212;SDS011;68639;52.380;9.822;2023-07-22T06:26:14;11.60;;;6.68;;
79212;SDS011;68639;52.380;9.822;2023-07-22T06:28:39;12.15;;;6.43;;
79212;SDS011;68639;52.380;9.822;2023-07-22T06:31:04;12.40;;;6.43;;
79212;SDS011;68639;52.380;9.822;2023-07-22T06:33:29;12.23;;;6.78;;
79212;SDS011;68639;52.380;9.822;2023-07-22T06:35:54;12.80;;;6.55;;
79212;SDS011;68639;52.380;9.822;2023-07-22T06:38:20;11.35;;;5.97;;
79212;SDS011;68639;52.380;9.822;2023-07-22T06:40:45;12.73;;;6.40;;
79212;SDS011;68639;52.380;9.822;2023-07-22T06:43:10;11.10;;;6.10;;
79212;SDS011;68639;52.380;9.822;2023-07-22T06:45:35;13.55;;;6.60;;
79212;SDS011;68639;52.380;9.822;2023-07-22T06:48:01;12.45;;;6.18;;
79212;SDS011;68639;52.380;9.822;2023-07-22T06:50:26;16.77;;;6.55;;
79212;SDS011;68639;52.380;9.822;2023-07-22T06:52:52;12.80;;;6.78;;
79212;SDS011;68639;52.380;9.822;2023-07-22T06:55:17;12.52;;;6.45;;
79212;SDS011;68639;52.380;9.822;2023-07-22T06:57:42;13.75;;;7.22;;
79212;SDS011;68639;52.380;9.822;2023-07-22T07:00:08;14.43;;;7.07;;
79212;SDS011;68639;52.380;9.822;2023-07-22T07:02:35;14.75;;;6.78;;
79212;SDS011;68639;52.380;9.822;2023-07-22T07:05:00;14.23;;;6.40;;
79212;SDS011;68639;52.380;9.822;2023-07-22T07:07:25;14.43;;;6.65;;
79212;SDS011;68639;52.380;9.822;2023-07-22T07:09:50;13.48;;;6.85;;
79212;SDS011;68639;52.380;9.822;2023-07-22T07:12:16;13.85;;;6.55;;
79212;SDS011;68639;52.380;9.822;2023-07-22T07:14:41;14.32;;;7.03;;
79212;SDS011;68639;52.380;9.822;2023-07-22T07:17:06;12.10;;;6.28;;
79212;SDS011;68639;52.380;9.822;2023-07-22T07:19:31;14.52;;;6.68;;
79212;SDS011;68639;52.380;9.822;2023-07-22T07:21:58;11.82;;;7.00;;
79212;SDS011;68639;52.380;9.822;2023-07-22T07:24:24;12.95;;;6.60;;
79212;SDS011;68639;52.380;9.822;2023-07-22T07:26:49;14.43;;;7.00;;
79212;SDS011;68639;52.380;9.822;2023-07-22T07:29:14;13.38;;;6.68;;
79212;SDS011;68639;52.380;9.822;2023-07-22T07:31:39;12.70;;;6.55;;
79212;SDS011;68639;52.380;9.822;2023-07-22T07:34:05;10.32;;;6.07;;
79212;SDS011;68639;52.380;9.822;2023-07-22T07:36:31;14.23;;;6.63;;
79212;SDS011;68639;52.380;9.822;2023-07-22T07:38:56;12.88;;;6.30;;
79212;SDS011;68639;52.380;9.822;2023-07-22T07:41:21;12.98;;;6.90;;
79212;SDS011;68639;52.380;9.822;2023-07-22T07:43:47;12.00;;;6.30;;
79212;SDS011;68639;52.380;9.822;2023-07-22T07:48:47;10.73;;;6.35;;
79212;SDS011;68639;52.380;9.822;2023-07-22T07:51:13;10.55;;;6.15;;
79212;SDS011;68639;52.380;9.822;2023-07-22T07:53:39;12.20;;;6.13;;
79212;SDS011;68639;52.380;9.822;2023-07-22T07:56:04;10.32;;;6.40;;
79212;SDS011;68639;52.380;9.822;2023-07-22T07:58:29;10.52;;;6.13;;
79212;SDS011;68639;52.380;9.822;2023-07-22T08:00:54;10.65;;;5.95;;
79212;SDS011;68639;52.380;9.822;2023-07-22T08:03:19;11.80;;;5.78;;
79212;SDS011;68639;52.380;9.822;2023-07-22T08:05:45;9.82;;;5.53;;
79212;SDS011;68639;52.380;9.822;2023-07-22T08:08:10;10.73;;;5.85;;
79212;SDS011;68639;52.380;9.822;2023-07-22T08:10:36;10.45;;;6.10;;
79212;SDS011;68639;52.380;9.822;2023-07-22T08:13:01;10.73;;;5.90;;
79212;SDS011;68639;52.380;9.822;2023-07-22T08:15:27;10.25;;;5.65;;
79212;SDS011;68639;52.380;9.822;2023-07-22T08:17:52;10.40;;;5.40;;
79212;SDS011;68639;52.380;9.822;2023-07-22T08:20:18;10.93;;;5.78;;
79212;SDS011;68639;52.380;9.822;2023-07-22T08:22:44;10.70;;;6.05;;
79212;SDS011;68639;52.380;9.822;2023-07-22T08:25:09;11.13;;;5.75;;
79212;SDS011;68639;52.380;9.822;2023-07-22T08:27:34;9.57;;;6.20;;
79212;SDS011;68639;52.380;9.822;2023-07-22T08:29:59;12.93;;;6.63;;
79212;SDS011;68639;52.380;9.822;2023-07-22T08:32:24;12.38;;;6.70;;
79212;SDS011;68639;52.380;9.822;2023-07-22T08:34:50;12.98;;;5.78;;
79212;SDS011;68639;52.380;9.822;2023-07-22T08:37:16;10.63;;;5.72;;
79212;SDS011;68639;52.380;9.822;2023-07-22T08:39:41;10.65;;;6.30;;
79212;SDS011;68639;52.380;9.822;2023-07-22T08:42:06;9.13;;;5.72;;
79212;SDS011;68639;52.380;9.822;2023-07-22T08:44:33;12.18;;;5.82;;
79212;SDS011;68639;52.380;9.822;2023-07-22T08:47:01;11.15;;;6.45;;
79212;SDS011;68639;52.380;9.822;2023-07-22T08:49:29;10.57;;;6.07;;
79212;SDS011;68639;52.380;9.822;2023-07-22T08:51:55;12.30;;;6.50;;
79212;SDS011;68639;52.380;9.822;2023-07-22T08:54:20;10.20;;;5.90;;
79212;SDS011;68639;52.380;9.822;2023-07-22T08:56:46;9.75;;;5.90;;
79212;SDS011;68639;52.380;9.822;2023-07-22T08:59:11;11.43;;;6.65;;
79212;SDS011;68639;52.380;9.822;2023-07-22T09:01:37;11.10;;;7.07;;
79212;SDS011;68639;52.380;9.822;2023-07-22T09:04:04;13.02;;;7.35;;
79212;SDS011;68639;52.380;9.822;2023-07-22T09:06:29;12.93;;;7.55;;
79212;SDS011;68639;52.380;9.822;2023-07-22T09:08:55;10.20;;;7.40;;
79212;SDS011;68639;52.380;9.822;2023-07-22T09:11:20;12.02;;;7.97;;
79212;SDS011;68639;52.380;9.822;2023-07-22T09:13:46;11.18;;;7.57;;
79212;SDS011;68639;52.380;9.822;2023-07-22T09:16:12;13.02;;;8.18;;
79212;SDS011;68639;52.380;9.822;2023-07-22T09:18:37;12.18;;;7.35;;
79212;SDS011;68639;52.380;9.822;2023-07-22T09:21:03;11.98;;;8.15;;
79212;SDS011;68639;52.380;9.822;2023-07-22T09:23:31;11.77;;;7.72;;
79212;SDS011;68639;52.380;9.822;2023-07-22T09:26:07;11.00;;;7.60;;
79212;SDS011;68639;52.380;9.822;2023-07-22T09:28:47;11.15;;;7.60;;
79212;SDS011;68639;52.380;9.822;2023-07-22T09:31:12;15.60;;;8.05;;
79212;SDS011;68639;52.380;9.822;2023-07-22T09:33:37;15.07;;;7.75;;
79212;SDS011;68639;52.380;9.822;2023-07-22T09:36:04;13.93;;;7.40;;
79212;SDS011;68639;52.380;9.822;2023-07-22T09:38:29;11.27;;;7.30;;
79212;SDS011;68639;52.380;9.822;2023-07-22T09:40:54;11.23;;;7.20;;
79212;SDS011;68639;52.380;9.822;2023-07-22T09:43:21;12.30;;;7.10;;
79212;SDS011;68639;52.380;9.822;2023-07-22T09:45:47;11.63;;;7.75;;
79212;SDS011;68639;52.380;9.822;2023-07-22T09:48:13;11.65;;;7.50;;
79212;SDS011;68639;52.380;9.822;2023-07-22T09:50:38;16.42;;;8.07;;
79212;SDS011;68639;52.380;9.822;2023-07-22T09:53:04;13.30;;;7.40;;
79212;SDS011;68639;52.380;9.822;2023-07-22T09:55:30;16.38;;;8.25;;
79212;SDS011;68639;52.380;9.822;2023-07-22T10:00:21;11.45;;;7.95;;
79212;SDS011;68639;52.380;9.822;2023-07-22T10:02:48;15.82;;;8.60;;
79212;SDS011;68639;52.380;9.822;2023-07-22T10:05:17;13.63;;;8.00;;
79212;SDS011;68639;52.380;9.822;2023-07-22T10:07:43;13.52;;;8.25;;
79212;SDS011;68639;52.380;9.822;2023-07-22T10:10:10;13.35;;;7.88;;
79212;SDS011;68639;52.380;9.822;2023-07-22T10:12:35;18.20;;;7.90;;
79212;SDS011;68639;52.380;9.822;2023-07-22T10:15:01;16.55;;;7.85;;
79212;SDS011;68639;52.380;9.822;2023-07-22T10:17:27;11.75;;;7.45;;
79212;SDS011;68639;52.380;9.822;2023-07-22T10:19:54;13.07;;;7.32;;
79212;SDS011;68639;52.380;9.822;2023-07-22T10:22:19;12.38;;;6.80;;
79212;SDS011;68639;52.380;9.822;2023-07-22T10:24:44;11.55;;;6.32;;
79212;SDS011;68639;52.380;9.822;2023-07-22T10:27:11;9.43;;;5.45;;
79212;SDS011;68639;52.380;9.822;2023-07-22T10:29:36;11.00;;;6.55;;
79212;SDS011;68639;52.380;9.822;2023-07-22T10:32:03;7.30;;;5.30;;
79212;SDS011;68639;52.380;9.822;2023-07-22T10:34:29;7.20;;;4.68;;
79212;SDS011;68639;52.380;9.822;2023-07-22T10:36:55;9.68;;;4.97;;
79212;SDS011;68639;52.380;9.822;2023-07-22T10:39:24;10.85;;;5.25;;
79212;SDS011;68639;52.380;9.822;2023-07-22T10:41:57;8.63;;;5.15;;
79212;SDS011;68639;52.380;9.822;2023-07-22T10:44:22;7.82;;;4.60;;
79212;SDS011;68639;52.380;9.822;2023-07-22T10:46:56;7.55;;;4.63;;
79212;SDS011;68639;52.380;9.822;2023-07-22T10:49:21;11.65;;;4.75;;
79212;SDS011;68639;52.380;9.822;2023-07-22T10:51:50;11.70;;;4.40;;
79212;SDS011;68639;52.380;9.822;2023-07-22T10:54:30;6.68;;;4.60;;
79212;SDS011;68639;52.380;9.822;2023-07-22T10:56:57;8.70;;;4.70;;
79212;SDS011;68639;52.380;9.822;2023-07-22T10:59:27;6.57;;;4.40;;
79212;SDS011;68639;52.380;9.822;2023-07-22T11:01:53;8.05;;;4.15;;
79212;SDS011;68639;52.380;9.822;2023-07-22T11:09:33;7.87;;;4.50;;
79212;SDS011;68639;52.380;9.822;2023-07-22T11:14:40;5.80;;;4.00;;
79212;SDS011;68639;52.380;9.822;2023-07-22T11:17:06;6.03;;;3.67;;
79212;SDS011;68639;52.380;9.822;2023-07-22T11:19:33;7.07;;;4.22;;
79212;SDS011;68639;52.380;9.822;2023-07-22T11:21:58;10.40;;;3.97;;
79212;SDS011;68639;52.380;9.822;2023-07-22T11:24:24;5.80;;;3.63;;
79212;SDS011;68639;52.380;9.822;2023-07-22T11:26:49;6.20;;;3.85;;
79212;SDS011;68639;52.380;9.822;2023-07-22T11:29:15;6.50;;;3.75;;
79212;SDS011;68639;52.380;9.822;2023-07-22T11:31:45;6.28;;;3.75;;
79212;SDS011;68639;52.380;9.822;2023-07-22T11:34:11;8.68;;;3.33;;
79212;SDS011;68639;52.380;9.822;2023-07-22T11:36:37;6.32;;;3.63;;
79212;SDS011;68639;52.380;9.822;2023-07-22T11:39:06;6.60;;;4.18;;
79212;SDS011;68639;52.380;9.822;2023-07-22T11:41:32;5.82;;;3.92;;
79212;SDS011;68639;52.380;9.822;2023-07-22T11:43:57;8.77;;;4.35;;
79212;SDS011;68639;52.380;9.822;2023-07-22T11:46:23;7.28;;;4.22;;
79212;SDS011;68639;52.380;9.822;2023-07-22T11:48:49;7.20;;;4.05;;
79212;SDS011;68639;52.380;9.822;2023-07-22T11:51:16;8.13;;;4.50;;
79212;SDS011;68639;52.380;9.822;2023-07-22T11:53:41;10.00;;;4.65;;
79212;SDS011;68639;52.380;9.822;2023-07-22T11:56:06;7.53;;;4.70;;
79212;SDS011;68639;52.380;9.822;2023-07-22T11:58:32;8.57;;;4.47;;
79212;SDS011;68639;52.380;9.822;2023-07-22T12:01:05;6.65;;;4.45;;
79212;SDS011;68639;52.380;9.822;2023-07-22T12:03:31;10.65;;;4.40;;
79212;SDS011;68639;52.380;9.822;2023-07-22T12:06:00;8.60;;;4.63;;
79212;SDS011;68639;52.380;9.822;2023-07-22T12:08:25;7.57;;;4.88;;
79212;SDS011;68639;52.380;9.822;2023-07-22T12:10:57;7.30;;;4.20;;
79212;SDS011;68639;52.380;9.822;2023-07-22T12:13:22;6.55;;;4.22;;
79212;SDS011;68639;52.380;9.822;2023-07-22T12:16:00;6.63;;;4.55;;
79212;SDS011;68639;52.380;9.822;2023-07-22T12:18:25;7.40;;;4.32;;
79212;SDS011;68639;52.380;9.822;2023-07-22T12:20:50;6.57;;;4.32;;
79212;SDS011;68639;52.380;9.822;2023-07-22T12:23:16;8.57;;;5.10;;
79212;SDS011;68639;52.380;9.822;2023-07-22T12:25:41;8.73;;;4.65;;
79212;SDS011;68639;52.380;9.822;2023-07-22T12:28:06;9.38;;;4.50;;
79212;SDS011;68639;52.380;9.822;2023-07-22T12:30:32;8.82;;;4.75;;
79212;SDS011;68639;52.380;9.822;2023-07-22T12:32:58;7.47;;;4.50;;
79212;SDS011;68639;52.380;9.822;2023-07-22T12:35:23;8.70;;;4.90;;
79212;SDS011;68639;52.380;9.822;2023-07-22T12:37:48;9.30;;;5.03;;
79212;SDS011;68639;52.380;9.822;2023-07-22T12:40:13;7.75;;;4.93;;
79212;SDS011;68639;52.380;9.822;2023-07-22T12:42:38;10.30;;;4.80;;
79212;SDS011;68639;52.380;9.822;2023-07-22T12:45:04;7.43;;;4.75;;
79212;SDS011;68639;52.380;9.822;2023-07-22T12:47:29;8.75;;;5.03;;
79212;SDS011;68639;52.380;9.822;2023-07-22T12:49:55;7.05;;;4.50;;
79212;SDS011;68639;52.380;9.822;2023-07-22T12:52:20;6.32;;;4.55;;
79212;SDS011;68639;52.380;9.822;2023-07-22T12:54:45;7.00;;;4.30;;
79212;SDS011;68639;52.380;9.822;2023-07-22T12:57:10;8.47;;;5.10;;
79212;SDS011;68639;52.380;9.822;2023-07-22T12:59:35;11.20;;;4.80;;
79212;SDS011;68639;52.380;9.822;2023-07-22T13:02:01;8.57;;;4.63;;
79212;SDS011;68639;52.380;9.822;2023-07-22T13:04:26;7.68;;;4.50;;
79212;SDS011;68639;52.380;9.822;2023-07-22T13:06:51;7.88;;;4.53;;
79212;SDS011;68639;52.380;9.822;2023-07-22T13:09:17;7.68;;;4.25;;
79212;SDS011;68639;52.380;9.822;2023-07-22T13:11:42;7.47;;;4.63;;
79212;SDS011;68639;52.380;9.822;2023-07-22T13:14:07;9.03;;;4.80;;
79212;SDS011;68639;52.380;9.822;2023-07-22T13:16:32;8.23;;;5.00;;
79212;SDS011;68639;52.380;9.822;2023-07-22T13:18:58;8.17;;;4.67;;
79212;SDS011;68639;52.380;9.822;2023-07-22T13:21:25;10.38;;;4.28;;
79212;SDS011;68639;52.380;9.822;2023-07-22T13:23:50;6.80;;;4.38;;
79212;SDS011;68639;52.380;9.822;2023-07-22T13:26:16;7.40;;;4.70;;
79212;SDS011;68639;52.380;9.822;2023-07-22T13:28:41;9.15;;;4.90;;
79212;SDS011;68639;52.380;9.822;2023-07-22T13:31:06;8.90;;;4.43;;
79212;SDS011;68639;52.380;9.822;2023-07-22T13:33:31;9.85;;;5.07;;
79212;SDS011;68639;52.380;9.822;2023-07-22T13:35:57;6.40;;;4.40;;
79212;SDS011;68639;52.380;9.822;2023-07-22T13:38:22;8.75;;;4.70;;
79212;SDS011;68639;52.380;9.822;2023-07-22T13:40:47;6.72;;;4.65;;
79212;SDS011;68639;52.380;9.822;2023-07-22T13:43:12;9.68;;;4.97;;
79212;SDS011;68639;52.380;9.822;2023-07-22T13:45:37;9.33;;;5.00;;
79212;SDS011;68639;52.380;9.822;2023-07-22T13:48:03;6.80;;;4.43;;
79212;SDS011;68639;52.380;9.822;2023-07-22T13:50:28;11.77;;;4.32;;
79212;SDS011;68639;52.380;9.822;2023-07-22T13:52:53;5.90;;;4.03;;
79212;SDS011;68639;52.380;9.822;2023-07-22T13:55:18;6.18;;;4.68;;
79212;SDS011;68639;52.380;9.822;2023-07-22T13:57:44;7.22;;;4.75;;
79212;SDS011;68639;52.380;9.822;2023-07-22T14:00:09;8.35;;;4.80;;
79212;SDS011;68639;52.380;9.822;2023-07-22T14:02:35;7.30;;;4.47;;
79212;SDS011;68639;52.380;9.822;2023-07-22T14:05:00;8.63;;;4.80;;
79212;SDS011;68639;52.380;9.822;2023-07-22T14:07:26;8.85;;;4.50;;
79212;SDS011;68639;52.380;9.822;2023-07-22T14:09:51;7.65;;;4.53;;
79212;SDS011;68639;52.380;9.822;2023-07-22T14:12:18;8.00;;;4.72;;
79212;SDS011;68639;52.380;9.822;2023-07-22T14:14:43;8.18;;;4.75;;
79212;SDS011;68639;52.380;9.822;2023-07-22T14:17:08;7.30;;;4.32;;
79212;SDS011;68639;52.380;9.822;2023-07-22T14:19:33;6.43;;;4.32;;
79212;SDS011;68639;52.380;9.822;2023-07-22T14:21:58;8.13;;;4.20;;
79212;SDS011;68639;52.380;9.822;2023-07-22T14:24:24;6.32;;;4.38;;
79212;SDS011;68639;52.380;9.822;2023-07-22T14:26:49;7.38;;;4.57;;
79212;SDS011;68639;52.380;9.822;2023-07-22T14:29:14;7.80;;;4.57;;
79212;SDS011;68639;52.380;9.822;2023-07-22T14:31:42;8.02;;;4.50;;
79212;SDS011;68639;52.380;9.822;2023-07-22T14:34:07;8.15;;;4.60;;
79212;SDS011;68639;52.380;9.822;2023-07-22T14:36:32;6.68;;;4.47;;
79212;SDS011;68639;52.380;9.822;2023-07-22T14:38:57;7.32;;;4.47;;
79212;SDS011;68639;52.380;9.822;2023-07-22T14:41:23;5.82;;;4.50;;